createdAt,value
2022-12-16T00:01:27.491Z,-0.32
2022-12-16T00:03:58.063Z,-0.33
2022-12-16T00:06:30.099Z,-0.32
2022-12-16T00:08:59.767Z,-0.35
2022-12-16T00:11:27.965Z,-0.36
2022-12-16T00:13:55.526Z,-0.38
2022-12-16T00:16:23.079Z,-0.39
2022-12-16T00:18:51.991Z,-0.39
2022-12-16T00:21:20.307Z,-0.41
2022-12-16T00:23:48.343Z,-0.43
2022-12-16T00:26:16.242Z,-0.44
2022-12-16T00:28:44.089Z,-0.44
2022-12-16T00:31:12.730Z,-0.44
2022-12-16T00:33:41.059Z,-0.43
2022-12-16T00:36:10.091Z,-0.45
2022-12-16T00:38:38.151Z,-0.45
2022-12-16T00:41:05.972Z,-0.46
2022-12-16T00:43:34.198Z,-0.46
2022-12-16T00:46:02.260Z,-0.45
2022-12-16T00:48:30.194Z,-0.46
2022-12-16T00:50:57.693Z,-0.45
2022-12-16T00:53:25.720Z,-0.45
2022-12-16T00:56:02.878Z,-0.50
2022-12-16T00:58:30.711Z,-0.51
2022-12-16T01:00:58.456Z,-0.54
2022-12-16T01:03:26.451Z,-0.54
2022-12-16T01:05:54.146Z,-0.52
2022-12-16T01:08:21.707Z,-0.51
2022-12-16T01:10:55.896Z,-0.47
2022-12-16T01:13:25.601Z,-0.45
2022-12-16T01:15:53.233Z,-0.44
2022-12-16T01:18:21.666Z,-0.41
2022-12-16T01:20:49.149Z,-0.41
2022-12-16T01:23:17.414Z,-0.40
2022-12-16T01:25:45.264Z,-0.40
2022-12-16T01:28:12.917Z,-0.39
2022-12-16T01:30:40.587Z,-0.36
2022-12-16T01:33:09.460Z,-0.35
2022-12-16T01:35:54.899Z,-0.34
2022-12-16T01:38:06.411Z,-0.33
2022-12-16T01:40:34.350Z,-0.31
2022-12-16T01:43:01.554Z,-0.30
2022-12-16T01:45:35.852Z,-0.28
2022-12-16T01:48:24.167Z,-0.27
2022-12-16T01:50:56.452Z,-0.26
2022-12-16T01:53:24.627Z,-0.26
2022-12-16T01:55:54.882Z,-0.24
2022-12-16T01:58:27.010Z,-0.22
2022-12-16T02:00:54.953Z,-0.18
2022-12-16T02:03:22.975Z,-0.11
2022-12-16T02:05:51.770Z,-0.04
2022-12-16T02:08:20.409Z,0.01
2022-12-16T02:11:02.740Z,0.06
2022-12-16T02:13:47.936Z,0.12
2022-12-16T02:16:35.578Z,0.17
2022-12-16T02:19:25.364Z,0.20
2022-12-16T02:22:09.971Z,0.25
2022-12-16T02:25:22.912Z,0.28
2022-12-16T02:28:08.566Z,0.33
2022-12-16T02:30:53.704Z,0.37
2022-12-16T02:33:37.575Z,0.40
2022-12-16T02:36:25.753Z,0.43
2022-12-16T02:39:00.915Z,0.47
2022-12-16T02:42:03.229Z,0.51
2022-12-16T02:44:55.949Z,0.56
2022-12-16T02:47:24.771Z,0.60
2022-12-16T02:49:54.715Z,0.62
2022-12-16T02:52:29.803Z,0.63
2022-12-16T02:55:05.044Z,0.65
2022-12-16T02:57:42.082Z,0.69
2022-12-16T03:00:14.617Z,0.71
2022-12-16T03:02:47.809Z,0.74
2022-12-16T03:05:36.050Z,0.77
2022-12-16T03:08:13.351Z,0.79
2022-12-16T03:10:55.615Z,0.80
2022-12-16T03:13:25.287Z,0.83
2022-12-16T03:15:56.528Z,0.86
2022-12-16T03:18:25.375Z,0.89
2022-12-16T03:20:58.309Z,0.93
2022-12-16T03:23:39.680Z,0.97
2022-12-16T03:26:13.711Z,1.00
2022-12-16T03:28:49.595Z,1.05
2022-12-16T03:31:44.164Z,1.07
2022-12-16T03:34:37.359Z,1.13
2022-12-16T03:37:09.273Z,1.18
2022-12-16T03:39:42.366Z,1.25
2022-12-16T03:42:14.541Z,1.34
2022-12-16T03:44:45.882Z,1.42
2022-12-16T03:47:18.342Z,1.52
2022-12-16T03:49:44.997Z,1.63
2022-12-16T03:52:12.856Z,1.73
2022-12-16T03:54:40.397Z,1.84
2022-12-16T03:57:14.759Z,1.95
2022-12-16T03:59:38.071Z,2.05
2022-12-16T04:02:05.750Z,2.14
2022-12-16T04:04:33.895Z,2.22
2022-12-16T04:07:19.834Z,2.31
2022-12-16T04:09:48.502Z,2.38
2022-12-16T04:12:34.884Z,2.44
2022-12-16T04:15:22.364Z,2.49
2022-12-16T04:18:08.972Z,2.56
2022-12-16T04:21:00.030Z,2.61
2022-12-16T04:23:49.228Z,2.67
2022-12-16T04:26:17.087Z,2.71
2022-12-16T04:28:44.603Z,2.72
2022-12-16T04:31:12.393Z,2.75
2022-12-16T04:33:59.336Z,2.77
2022-12-16T04:36:45.353Z,2.79
2022-12-16T04:39:31.542Z,2.81
2022-12-16T04:42:17.649Z,2.82
2022-12-16T04:45:03.790Z,2.82
2022-12-16T04:47:54.122Z,2.82
2022-12-16T04:50:21.242Z,2.83
2022-12-16T04:53:10.157Z,2.83
2022-12-16T04:56:02.099Z,2.83
2022-12-16T04:58:44.373Z,2.83
2022-12-16T05:01:30.718Z,2.81
2022-12-16T05:04:17.108Z,2.75
2022-12-16T05:07:03.162Z,2.71
2022-12-16T05:09:41.621Z,2.68
2022-12-16T05:12:28.127Z,2.68
2022-12-16T05:15:14.461Z,2.70
2022-12-16T05:18:03.183Z,2.72
2022-12-16T05:20:49.570Z,2.76
2022-12-16T05:23:36.094Z,2.80
2022-12-16T05:26:25.327Z,2.83
2022-12-16T05:29:11.558Z,2.86
2022-12-16T05:31:57.640Z,2.91
2022-12-16T05:34:43.987Z,2.99
2022-12-16T05:37:29.983Z,3.03
2022-12-16T05:40:16.166Z,3.11
2022-12-16T05:43:06.116Z,3.17
2022-12-16T05:45:52.470Z,3.24
2022-12-16T05:48:41.961Z,3.29
2022-12-16T05:51:26.888Z,3.34
2022-12-16T05:54:13.197Z,3.39
2022-12-16T05:56:59.556Z,3.41
2022-12-16T05:59:45.893Z,3.43
2022-12-16T06:02:31.917Z,3.48
2022-12-16T06:05:18.424Z,3.51
2022-12-16T06:08:11.373Z,3.54
2022-12-16T06:10:57.685Z,3.61
2022-12-16T06:13:44.100Z,3.66
2022-12-16T06:16:30.814Z,3.70
2022-12-16T06:19:17.419Z,3.76
2022-12-16T06:22:05.570Z,3.78
2022-12-16T06:24:51.889Z,3.81
2022-12-16T06:27:38.201Z,3.83
2022-12-16T06:30:28.806Z,3.83
2022-12-16T06:33:14.807Z,3.86
2022-12-16T06:36:00.511Z,3.88
2022-12-16T06:38:36.960Z,3.89
2022-12-16T06:41:23.334Z,3.90
2022-12-16T06:44:10.241Z,3.90
2022-12-16T06:46:56.300Z,3.90
2022-12-16T06:49:42.054Z,3.91
2022-12-16T06:52:28.915Z,3.93
2022-12-16T06:55:16.166Z,3.94
2022-12-16T06:58:06.785Z,3.95
2022-12-16T07:00:52.417Z,3.97
2022-12-16T07:03:38.762Z,3.98
2022-12-16T07:06:25.551Z,4.00
2022-12-16T07:09:11.363Z,4.01
2022-12-16T07:11:59.506Z,4.03
2022-12-16T07:14:45.951Z,4.04
2022-12-16T07:17:32.093Z,4.05
2022-12-16T07:20:17.899Z,4.08
2022-12-16T07:23:13.075Z,4.10
2022-12-16T07:25:52.980Z,4.14
2022-12-16T07:28:38.762Z,4.17
2022-12-16T07:31:24.863Z,4.21
2022-12-16T07:34:11.193Z,4.25
2022-12-16T07:36:58.412Z,4.28
2022-12-16T07:39:48.821Z,4.31
2022-12-16T07:42:32.889Z,4.35
2022-12-16T07:45:19.199Z,4.36
2022-12-16T07:48:07.239Z,4.40
2022-12-16T07:50:55.013Z,4.44
2022-12-16T07:53:42.804Z,4.49
2022-12-16T07:56:29.028Z,4.51
2022-12-16T07:59:17.398Z,4.54
2022-12-16T08:02:03.645Z,4.60
2022-12-16T08:04:51.392Z,4.62
2022-12-16T08:07:39.135Z,4.67
2022-12-16T08:10:26.306Z,4.69
2022-12-16T08:13:25.885Z,4.71
2022-12-16T08:16:10.493Z,4.75
2022-12-16T08:18:56.406Z,4.80
2022-12-16T08:21:42.578Z,4.81
2022-12-16T08:24:29.225Z,4.85
2022-12-16T08:27:15.868Z,4.87
2022-12-16T08:30:01.840Z,4.89
2022-12-16T08:32:47.601Z,4.91
2022-12-16T08:42:06.518Z,4.94
2022-12-16T08:44:54.427Z,4.99
2022-12-16T08:47:40.605Z,5.01
2022-12-16T08:50:28.018Z,5.05
2022-12-16T08:53:14.040Z,5.07
2022-12-16T08:56:00.851Z,5.10
2022-12-16T08:58:47.184Z,5.12
2022-12-16T09:01:35.487Z,5.16
2022-12-16T09:04:22.720Z,5.20
2022-12-16T09:07:09.086Z,5.24
2022-12-16T09:09:55.287Z,5.30
2022-12-16T09:12:41.028Z,5.33
2022-12-16T09:15:28.251Z,5.38
2022-12-16T09:18:15.148Z,5.40
2022-12-16T09:21:01.309Z,5.43
2022-12-16T09:23:46.915Z,5.44
2022-12-16T09:26:33.096Z,5.45
2022-12-16T09:29:18.890Z,5.44
2022-12-16T09:32:05.366Z,5.46
2022-12-16T09:34:54.326Z,5.47
2022-12-16T09:37:41.474Z,5.47
2022-12-16T09:40:31.748Z,5.50
2022-12-16T09:43:39.879Z,5.53
2022-12-16T09:47:08.399Z,5.57
2022-12-16T09:50:06.614Z,5.60
2022-12-16T09:53:07.369Z,5.64
2022-12-16T09:55:59.112Z,5.68
2022-12-16T09:58:52.778Z,5.74
2022-12-16T10:01:40.498Z,5.80
2022-12-16T10:04:27.018Z,5.84
2022-12-16T10:07:17.306Z,5.87
2022-12-16T10:10:40.669Z,5.92
2022-12-16T10:13:51.533Z,5.97
2022-12-16T10:16:53.183Z,6.02
2022-12-16T10:19:53.159Z,6.07
2022-12-16T10:22:49.309Z,6.13
2022-12-16T10:25:43.787Z,6.20
2022-12-16T10:28:37.620Z,6.26
2022-12-16T10:31:33.421Z,6.32
2022-12-16T10:34:20.152Z,6.37
2022-12-16T10:37:12.340Z,6.37
2022-12-16T10:40:05.212Z,6.38
2022-12-16T10:43:07.894Z,6.40
2022-12-16T10:46:01.512Z,6.43
2022-12-16T10:48:54.981Z,6.48
2022-12-16T10:51:41.316Z,6.54
2022-12-16T10:54:45.129Z,6.61
2022-12-16T10:57:54.594Z,6.69
2022-12-16T11:01:02.374Z,6.77
2022-12-16T11:03:52.060Z,6.84
2022-12-16T11:06:46.954Z,6.86
2022-12-16T11:09:47.023Z,6.91
2022-12-16T11:12:43.855Z,6.92
2022-12-16T11:15:44.118Z,6.92
2022-12-16T11:18:40.269Z,6.94
2022-12-16T11:21:33.708Z,6.97
2022-12-16T11:24:37.802Z,6.98
2022-12-16T11:27:33.557Z,7.01
2022-12-16T11:30:24.261Z,7.03
2022-12-16T11:33:15.327Z,7.07
2022-12-16T11:36:11.658Z,7.12
2022-12-16T11:39:06.846Z,7.18
2022-12-16T11:42:02.850Z,7.25
2022-12-16T11:45:00.278Z,7.34
2022-12-16T11:48:03.463Z,7.43
2022-12-16T11:50:55.461Z,7.47
2022-12-16T11:54:12.198Z,7.53
2022-12-16T11:57:01.934Z,7.57
2022-12-16T12:00:13.510Z,7.58
2022-12-16T12:03:31.097Z,7.58
2022-12-16T12:06:46.868Z,7.58
2022-12-16T12:09:40.819Z,7.57
2022-12-16T12:12:47.348Z,7.55
2022-12-16T12:16:12.320Z,7.57
2022-12-16T12:19:03.647Z,7.59
2022-12-16T12:22:10.358Z,7.69
2022-12-16T12:25:02.929Z,7.75
2022-12-16T12:28:08.707Z,7.79
2022-12-16T12:31:03.217Z,7.81
2022-12-16T12:33:57.780Z,7.84
2022-12-16T12:36:49.229Z,7.82
2022-12-16T12:40:01.606Z,7.79
2022-12-16T12:43:08.181Z,7.77
2022-12-16T12:46:51.993Z,7.73
2022-12-16T12:49:49.676Z,7.69
2022-12-16T12:52:33.823Z,7.60
2022-12-16T12:55:26.092Z,7.56
2022-12-16T12:58:15.704Z,7.53
2022-12-16T13:01:07.249Z,7.50
2022-12-16T13:04:00.715Z,7.47
2022-12-16T13:06:58.090Z,7.43
2022-12-16T13:09:56.569Z,7.36
2022-12-16T13:12:51.213Z,7.30
2022-12-16T13:15:56.861Z,7.28
2022-12-16T13:18:50.791Z,7.23
2022-12-16T13:22:00.845Z,7.19
2022-12-16T13:24:57.086Z,7.17
2022-12-16T13:27:45.220Z,7.16
2022-12-16T13:30:36.643Z,7.15
2022-12-16T13:33:48.712Z,7.13
2022-12-16T13:36:36.580Z,7.13
2022-12-16T13:39:42.368Z,7.14
2022-12-16T13:43:01.801Z,7.13
2022-12-16T13:45:58.326Z,7.09
2022-12-16T13:48:50.246Z,7.06
2022-12-16T13:51:58.580Z,7.03
2022-12-16T13:55:14.303Z,6.98
2022-12-16T13:58:03.714Z,6.94
2022-12-16T14:00:54.862Z,6.89
2022-12-16T14:04:08.114Z,6.87
2022-12-16T14:06:57.385Z,6.87
2022-12-16T14:09:59.615Z,6.86
2022-12-16T14:13:06.304Z,6.85
2022-12-16T14:15:58.580Z,6.82
2022-12-16T14:18:55.671Z,6.78
2022-12-16T14:21:52.622Z,6.74
2022-12-16T14:24:45.034Z,6.64
2022-12-16T14:27:35.705Z,6.54
2022-12-16T14:30:37.753Z,6.44
2022-12-16T14:33:47.591Z,6.37
2022-12-16T14:36:48.883Z,6.28
2022-12-16T14:39:46.558Z,6.19
2022-12-16T14:42:45.941Z,6.14
2022-12-16T14:45:46.062Z,6.09
2022-12-16T14:48:41.005Z,6.07
2022-12-16T14:51:56.071Z,6.04
2022-12-16T14:55:02.790Z,5.99
2022-12-16T14:57:50.777Z,5.92
2022-12-16T15:00:42.007Z,5.87
2022-12-16T15:03:52.233Z,5.85
2022-12-16T15:06:55.552Z,5.83
2022-12-16T15:09:51.538Z,5.80
2022-12-16T15:12:40.341Z,5.77
2022-12-16T15:15:34.415Z,5.74
2022-12-16T15:18:21.829Z,5.71
2022-12-16T15:21:11.779Z,5.68
2022-12-16T15:24:03.230Z,5.68
2022-12-16T15:26:52.418Z,5.66
2022-12-16T15:29:56.921Z,5.64
2022-12-16T15:32:50.323Z,5.61
2022-12-16T15:35:41.851Z,5.59
2022-12-16T15:38:49.650Z,5.56
2022-12-16T15:41:44.005Z,5.53
2022-12-16T15:44:36.091Z,5.50
2022-12-16T15:47:22.928Z,5.46
2022-12-16T15:50:09.357Z,5.43
2022-12-16T15:53:03.131Z,5.38
2022-12-16T15:56:02.553Z,5.37
2022-12-16T15:58:54.237Z,5.36
2022-12-16T16:01:43.638Z,5.33
2022-12-16T16:04:48.882Z,5.32
2022-12-16T16:07:40.279Z,5.32
2022-12-16T16:10:42.673Z,5.30
2022-12-16T16:13:29.474Z,5.29
2022-12-16T16:16:16.460Z,5.25
2022-12-16T16:19:04.721Z,5.23
2022-12-16T16:21:50.902Z,5.21
2022-12-16T16:24:37.032Z,5.20
2022-12-16T16:27:27.987Z,5.16
2022-12-16T16:30:15.430Z,5.12
2022-12-16T16:33:02.189Z,5.10
2022-12-16T16:35:51.058Z,5.08
2022-12-16T16:38:37.620Z,5.07
2022-12-16T16:41:32.370Z,5.10
2022-12-16T16:44:19.939Z,5.13
2022-12-16T16:47:06.277Z,5.16
2022-12-16T16:50:00.861Z,5.20
2022-12-16T16:52:47.710Z,5.23
2022-12-16T16:55:42.710Z,5.28
2022-12-16T16:58:48.281Z,5.31
2022-12-16T17:01:36.231Z,5.33
2022-12-16T17:04:22.799Z,5.36
2022-12-16T17:07:08.894Z,5.36
2022-12-16T17:09:54.946Z,5.36
2022-12-16T17:12:46.914Z,5.36
2022-12-16T17:15:46.392Z,5.36
2022-12-16T17:18:34.161Z,5.36
2022-12-16T17:21:21.806Z,5.35
2022-12-16T17:24:08.188Z,5.36
2022-12-16T17:26:59.315Z,5.37
2022-12-16T17:29:47.267Z,5.39
2022-12-16T17:32:33.341Z,5.42
2022-12-16T17:35:23.448Z,5.44
2022-12-16T17:38:09.749Z,5.46
2022-12-16T17:40:55.370Z,5.48
2022-12-16T17:43:42.995Z,5.53
2022-12-16T17:46:30.160Z,5.55
2022-12-16T17:49:17.016Z,5.58
2022-12-16T17:52:04.503Z,5.60
2022-12-16T17:54:54.323Z,5.62
2022-12-16T17:57:40.901Z,5.64
2022-12-16T18:00:27.917Z,5.66
2022-12-16T18:03:14.690Z,5.68
2022-12-16T18:06:01.261Z,5.71
2022-12-16T18:08:52.419Z,5.73
2022-12-16T18:11:39.058Z,5.77
2022-12-16T18:14:25.807Z,5.80
2022-12-16T18:17:11.561Z,5.81
2022-12-16T18:19:57.904Z,5.84
2022-12-16T18:22:43.860Z,5.87
2022-12-16T18:25:29.845Z,5.89
2022-12-16T18:28:15.928Z,5.91
2022-12-16T18:31:01.958Z,5.91
2022-12-16T18:33:48.888Z,5.94
2022-12-16T18:36:36.128Z,5.95
2022-12-16T18:39:26.371Z,5.97
2022-12-16T18:42:12.647Z,5.98
2022-12-16T18:45:01.458Z,6.00
2022-12-16T18:47:48.449Z,6.03
2022-12-16T18:50:37.983Z,6.07
2022-12-16T18:53:22.591Z,6.09
2022-12-16T18:56:18.946Z,6.12
2022-12-16T18:59:04.494Z,6.13
2022-12-16T19:01:50.720Z,6.16
2022-12-16T19:04:36.584Z,6.19
2022-12-16T19:07:22.723Z,6.19
2022-12-16T19:10:09.401Z,6.21
2022-12-16T19:12:56.068Z,6.22
2022-12-16T19:15:42.158Z,6.21
2022-12-16T19:18:33.427Z,6.23
2022-12-16T19:21:20.084Z,6.25
2022-12-16T19:24:07.211Z,6.25
2022-12-16T19:26:53.351Z,6.22
2022-12-16T19:29:42.144Z,6.19
2022-12-16T19:32:28.781Z,6.15
2022-12-16T19:35:14.531Z,6.11
2022-12-16T19:38:03.022Z,6.09
2022-12-16T19:40:50.715Z,6.09
2022-12-16T19:43:36.932Z,6.09
2022-12-16T19:46:23.351Z,6.11
2022-12-16T19:49:09.844Z,6.11
2022-12-16T19:51:56.250Z,6.12
2022-12-16T19:54:42.003Z,6.15
2022-12-16T19:57:32.917Z,6.18
2022-12-16T20:00:20.012Z,6.20
2022-12-16T20:03:06.502Z,6.22
2022-12-16T20:05:52.993Z,6.24
2022-12-16T20:08:41.494Z,6.24
2022-12-16T20:11:27.967Z,6.23
2022-12-16T20:14:14.490Z,6.25
2022-12-16T20:17:02.346Z,6.24
2022-12-16T20:19:51.505Z,6.24
2022-12-16T20:22:57.474Z,6.27
2022-12-16T20:25:43.821Z,6.30
2022-12-16T20:28:33.181Z,6.32
2022-12-16T20:31:22.835Z,6.36
2022-12-16T20:34:15.379Z,6.39
2022-12-16T20:37:01.781Z,6.44
2022-12-16T20:42:41.287Z,6.52
2022-12-16T20:45:29.130Z,6.56
2022-12-16T20:48:15.820Z,6.58
2022-12-16T20:51:04.040Z,6.62
2022-12-16T20:53:50.356Z,6.63
2022-12-16T20:56:41.765Z,6.65
2022-12-16T20:59:28.423Z,6.68
2022-12-16T21:02:23.201Z,6.72
2022-12-16T21:05:03.856Z,6.76
2022-12-16T21:07:53.047Z,6.81
2022-12-16T21:10:40.619Z,6.89
2022-12-16T21:13:31.359Z,6.96
2022-12-16T21:16:24.274Z,7.04
2022-12-16T21:19:14.420Z,7.13
2022-12-16T21:22:03.311Z,7.26
2022-12-16T21:24:36.430Z,7.40
2022-12-16T21:27:24.387Z,7.49
2022-12-16T21:30:10.850Z,7.55
2022-12-16T21:32:57.289Z,7.61
2022-12-16T21:35:52.670Z,7.65
2022-12-16T21:38:43.467Z,7.68
2022-12-16T21:41:32.739Z,7.68
2022-12-16T21:47:29.426Z,7.63
2022-12-16T21:50:20.899Z,7.62
2022-12-16T21:53:08.222Z,7.60
2022-12-16T21:56:01.885Z,7.57
2022-12-16T21:58:48.954Z,7.54
2022-12-16T22:01:35.614Z,7.51
2022-12-16T22:04:26.019Z,7.48
2022-12-16T22:07:21.699Z,7.44
2022-12-16T22:10:09.893Z,7.36
2022-12-16T22:12:56.940Z,7.31
2022-12-16T22:15:43.840Z,7.28
2022-12-16T22:22:09.630Z,7.27
2022-12-16T22:25:19.100Z,7.27
2022-12-16T22:28:10.643Z,7.31
2022-12-16T22:31:01.796Z,7.35
2022-12-16T22:37:24.240Z,7.44
2022-12-16T22:40:14.070Z,7.47
2022-12-16T22:43:14.289Z,7.48
2022-12-16T22:46:04.013Z,7.47
2022-12-16T22:48:51.935Z,7.47
2022-12-16T22:51:40.271Z,7.43
2022-12-16T22:54:30.153Z,7.36
2022-12-16T22:57:16.209Z,7.31
2022-12-16T23:00:02.523Z,7.26
2022-12-16T23:02:48.134Z,7.23
2022-12-16T23:05:38.723Z,7.22
2022-12-16T23:08:25.727Z,7.20
2022-12-16T23:11:14.820Z,7.16
2022-12-16T23:14:01.619Z,7.15
2022-12-16T23:16:47.619Z,7.10
2022-12-16T23:19:33.512Z,7.08
2022-12-16T23:22:22.123Z,7.08
2022-12-16T23:25:08.667Z,7.08
2022-12-16T23:27:56.350Z,7.06
2022-12-16T23:30:43.629Z,7.06
2022-12-16T23:33:29.693Z,7.08
2022-12-16T23:36:15.744Z,7.07
2022-12-16T23:39:02.142Z,7.09
2022-12-16T23:41:48.414Z,7.10
2022-12-16T23:44:34.847Z,7.13
2022-12-16T23:47:21.286Z,7.20
2022-12-16T23:50:11.140Z,7.24
2022-12-16T23:52:57.589Z,7.28
2022-12-16T23:55:50.329Z,7.27
2022-12-16T23:58:37.700Z,7.29
